Time,TemperatureF,DewpointF,PressureIn,WindDirection,WindDirectionDegrees,WindSpeedMPH,WindSpeedGustMPH,Humidity,HourlyPrecipIn,Conditions,Clouds,dailyrainin,SolarRadiationWatts/m^2,SoftwareType,DateUTC
2013-03-30 00:00:00,38.7,23.5,30.02,North,5,11.0,14.0,54,0.00,,,0.00,0,Wunderground v.1.15,2013-03-30 06:00:00,
2013-03-30 00:10:00,39.4,23.2,30.02,North,360,12.0,15.0,52,0.00,,,0.00,0,Wunderground v.1.15,2013-03-30 06:10:00,
2013-03-30 00:20:00,39.7,23.5,30.03,NW,318,11.0,16.0,52,0.00,,,0.00,0,Wunderground v.1.15,2013-03-30 06:20:00,
2013-03-30 00:30:00,39.4,23.7,30.02,NNW,342,13.0,17.0,53,0.00,,,0.00,0,Wunderground v.1.15,2013-03-30 06:30:00,
2013-03-30 00:50:00,39.1,23.8,30.02,West,275,13.0,13.0,54,0.00,,,0.00,0,Wunderground v.1.15,2013-03-30 06:50:00,
2013-03-30 01:10:00,38.4,24.1,30.02,WNW,294,13.0,20.0,56,0.00,,,0.00,0,Wunderground v.1.15,2013-03-30 07:10:00,
2013-03-30 01:31:00,38.0,24.1,30.03,West,279,13.0,18.0,57,0.00,,,0.00,0,Wunderground v.1.15,2013-03-30 07:31:00,
2013-03-30 01:40:00,38.0,24.1,30.02,NNW,327,16.0,16.0,57,0.00,,,0.00,0,Wunderground v.1.15,2013-03-30 07:40:00,
2013-03-30 01:50:00,37.9,24.0,30.02,West,276,15.0,25.0,57,0.00,,,0.00,0,Wunderground v.1.15,2013-03-30 07:50:00,
2013-03-30 02:10:00,38.2,23.4,30.02,NNW,327,15.0,17.0,55,0.00,,,0.00,0,Wunderground v.1.15,2013-03-30 08:10:00,
2013-03-30 02:30:00,37.5,24.5,30.02,WNW,301,16.0,16.0,59,0.00,,,0.00,0,Wunderground v.1.15,2013-03-30 08:30:00,
2013-03-30 02:41:00,37.5,24.1,30.02,WNW,292,17.0,24.0,58,0.00,,,0.00,0,Wunderground v.1.15,2013-03-30 08:41:00,
2013-03-30 02:50:00,37.5,24.5,30.02,WNW,284,19.0,24.0,59,0.00,,,0.00,0,Wunderground v.1.15,2013-03-30 08:50:00,
2013-03-30 03:10:00,37.4,24.8,30.02,NW,319,19.0,20.0,60,0.00,,,0.00,0,Wunderground v.1.15,2013-03-30 09:10:00,
2013-03-30 03:31:00,36.9,24.7,30.02,West,273,20.0,21.0,61,0.00,,,0.00,0,Wunderground v.1.15,2013-03-30 09:31:00,
2013-03-30 03:40:00,36.8,24.6,30.02,NW,311,17.0,17.0,61,0.00,,,0.00,0,Wunderground v.1.15,2013-03-30 09:40:00,
2013-03-30 04:00:00,36.6,24.0,30.01,WNW,296,18.0,18.0,60,0.00,,,0.00,0,Wunderground v.1.15,2013-03-30 10:00:00,
2013-03-30 04:20:00,36.5,24.3,30.01,North,350,14.0,14.0,61,0.00,,,0.00,0,Wunderground v.1.15,2013-03-30 10:20:00,
2013-03-30 04:30:00,36.4,24.2,30.02,WNW,286,11.0,12.0,61,0.00,,,0.00,0,Wunderground v.1.15,2013-03-30 10:30:00,
2013-03-30 04:50:00,36.4,24.2,30.01,NW,305,14.0,14.0,61,0.00,,,0.00,0,Wunderground v.1.15,2013-03-30 10:50:00,
2013-03-30 05:10:00,36.9,24.7,30.00,NNW,345,15.0,24.0,61,0.00,,,0.00,0,Wunderground v.1.15,2013-03-30 11:10:00,
2013-03-30 05:30:00,37.1,24.9,30.01,North,11,14.0,14.0,61,0.00,,,0.00,0,Wunderground v.1.15,2013-03-30 11:30:00,
2013-03-30 05:50:00,36.9,24.7,30.00,NNW,332,12.0,12.0,61,0.00,,,0.00,0,Wunderground v.1.15,2013-03-30 11:50:00,
2013-03-30 06:10:00,37.2,24.6,29.99,WNW,284,15.0,17.0,60,0.00,,,0.00,0,Wunderground v.1.15,2013-03-30 12:10:00,
2013-03-30 06:30:00,37.0,24.0,29.99,NW,309,14.0,14.0,59,0.00,,,0.00,0,Wunderground v.1.15,2013-03-30 12:30:00,
2013-03-30 06:40:00,37.0,24.4,30.00,NW,306,14.0,15.0,60,0.00,,,0.00,0,Wunderground v.1.15,2013-03-30 12:40:00,
2013-03-30 07:00:00,37.0,24.0,29.99,WNW,292,18.0,18.0,59,0.00,,,0.00,9,Wunderground v.1.15,2013-03-30 13:00:00,
2013-03-30 07:10:00,37.0,24.0,29.99,West,267,16.0,22.0,59,0.00,,,0.00,14,Wunderground v.1.15,2013-03-30 13:10:00,
2013-03-30 07:30:00,37.7,24.2,29.99,WNW,283,12.0,12.0,58,0.00,,,0.00,60,Wunderground v.1.15,2013-03-30 13:30:00,
2013-03-30 07:50:00,38.9,24.5,29.99,NW,310,13.0,13.0,56,0.00,,,0.00,134,Wunderground v.1.15,2013-03-30 13:50:00,
2013-03-30 08:10:00,40.1,24.8,29.98,West,267,11.0,24.0,54,0.00,,,0.00,225,Wunderground v.1.15,2013-03-30 14:10:00,
2013-03-30 08:40:00,41.0,24.2,29.98,West,280,12.0,17.0,51,0.00,,,0.00,350,Wunderground v.1.15,2013-03-30 14:40:00,
2013-03-30 08:50:00,41.4,24.1,29.98,NW,309,16.0,16.0,50,0.00,,,0.00,383,Wunderground v.1.15,2013-03-30 14:50:00,
2013-03-30 09:00:00,41.7,23.4,29.98,WNW,296,15.0,19.0,48,0.00,,,0.00,422,Wunderground v.1.15,2013-03-30 15:00:00,
2013-03-30 09:10:00,41.8,24.0,29.97,West,262,14.0,16.0,49,0.00,,,0.00,454,Wunderground v.1.15,2013-03-30 15:10:00,
2013-03-30 09:20:00,41.8,24.0,29.99,NW,319,18.0,18.0,49,0.00,,,0.00,492,Wunderground v.1.15,2013-03-30 15:20:00,
2013-03-30 09:30:00,42.4,24.6,29.98,NNW,344,15.0,15.0,49,0.00,,,0.00,527,Wunderground v.1.15,2013-03-30 15:30:00,
2013-03-30 09:40:00,42.8,24.9,29.98,NW,306,15.0,15.0,49,0.00,,,0.00,564,Wunderground v.1.15,2013-03-30 15:40:00,
2013-03-30 10:00:00,42.9,24.5,29.98,North,350,21.0,21.0,48,0.00,,,0.00,596,Wunderground v.1.15,2013-03-30 16:00:00,
2013-03-30 10:20:00,44.1,26.1,29.96,WNW,294,16.0,32.0,49,0.00,,,0.00,728,Wunderground v.1.15,2013-03-30 16:20:00,
2013-03-30 10:40:00,44.0,26.0,29.97,WNW,298,15.0,15.0,49,0.00,,,0.00,515,Wunderground v.1.15,2013-03-30 16:40:00,
2013-03-30 11:10:00,44.3,25.8,29.98,NW,316,19.0,19.0,48,0.00,,,0.00,912,Wunderground v.1.15,2013-03-30 17:10:00,
2013-03-30 11:20:00,45.3,25.2,29.98,NNE,13,16.0,16.0,45,0.00,,,0.00,976,Wunderground v.1.15,2013-03-30 17:20:00,
2013-03-30 11:40:00,45.6,24.9,29.98,NNW,329,12.0,19.0,44,0.00,,,0.00,960,Wunderground v.1.15,2013-03-30 17:40:00,
2013-03-30 11:50:00,45.4,24.7,29.98,NNW,342,12.0,12.0,44,0.00,,,0.00,962,Wunderground v.1.15,2013-03-30 17:50:00,
2013-03-30 12:10:00,46.1,24.3,29.98,North,355,17.0,17.0,42,0.00,,,0.00,918,Wunderground v.1.15,2013-03-30 18:10:00,
2013-03-30 12:30:00,44.0,24.0,29.98,West,261,20.0,24.0,45,0.00,,,0.00,176,Wunderground v.1.15,2013-03-30 18:30:00,
2013-03-30 12:50:00,43.8,29.1,29.96,NNW,327,8.0,11.0,56,0.00,,,0.00,1150,Wunderground v.1.15,2013-03-30 18:50:00,
2013-03-30 13:10:00,46.8,25.5,29.97,NNW,327,12.0,12.0,43,0.00,,,0.00,438,Wunderground v.1.15,2013-03-30 19:10:00,
2013-03-30 13:30:00,45.8,25.6,29.97,NW,311,11.0,11.0,45,0.00,,,0.00,295,Wunderground v.1.15,2013-03-30 19:30:00,
2013-03-30 13:40:00,45.4,26.8,29.96,NW,317,10.0,18.0,48,0.00,,,0.00,861,Wunderground v.1.15,2013-03-30 19:40:00,
2013-03-30 14:00:00,44.4,24.4,29.96,North,350,8.0,9.0,45,0.00,,,0.00,204,Wunderground v.1.15,2013-03-30 20:00:00,
2013-03-30 14:20:00,41.8,26.4,29.97,NNW,346,14.0,14.0,54,0.00,,,0.00,121,Wunderground v.1.15,2013-03-30 20:20:00,
2013-03-30 14:40:00,38.6,27.5,29.99,WSW,237,7.0,7.0,64,0.06,,,0.02,202,Wunderground v.1.15,2013-03-30 20:40:00,
2013-03-30 14:50:00,40.5,27.7,29.97,NNE,30,7.0,9.0,60,0.05,,,0.02,373,Wunderground v.1.15,2013-03-30 20:50:00,
2013-03-30 15:10:00,41.5,25.6,29.98,WNW,288,11.0,15.0,53,0.00,,,0.02,311,Wunderground v.1.15,2013-03-30 21:10:00,
2013-03-30 15:30:00,38.8,28.4,30.00,NW,311,20.0,20.0,66,0.00,,,0.02,114,Wunderground v.1.15,2013-03-30 21:30:00,
2013-03-30 16:10:00,43.6,30.2,29.98,North,355,15.0,16.0,59,0.00,,,0.02,763,Wunderground v.1.15,2013-03-30 22:10:00,
2013-03-30 16:30:00,36.6,30.1,30.00,NNE,17,13.0,13.0,77,0.18,,,0.04,350,Wunderground v.1.15,2013-03-30 22:30:00,
2013-03-30 16:40:00,37.3,31.7,29.99,WNW,283,8.0,8.0,80,0.06,,,0.04,188,Wunderground v.1.15,2013-03-30 22:40:00,
2013-03-30 17:00:00,40.8,29.6,30.00,South,173,10.0,10.0,64,0.00,,,0.04,127,Wunderground v.1.15,2013-03-30 23:00:00,
2013-03-30 17:30:00,43.5,27.5,30.01,North,349,12.0,18.0,53,0.00,,,0.04,381,Wunderground v.1.15,2013-03-30 23:30:00,
2013-03-30 17:50:00,43.3,23.4,30.00,NNW,333,11.0,13.0,45,0.00,,,0.04,278,Wunderground v.1.15,2013-03-30 23:50:00,
2013-03-30 18:10:00,40.9,21.7,30.01,NNW,337,13.0,19.0,46,0.00,,,0.04,33,Wunderground v.1.15,2013-03-31 00:10:00,
2013-03-30 18:20:00,40.5,20.8,30.01,NNW,345,14.0,21.0,45,0.00,,,0.04,30,Wunderground v.1.15,2013-03-31 00:20:00,
2013-03-30 18:31:00,40.1,22.0,30.02,NNW,348,14.0,23.0,48,0.00,,,0.04,28,Wunderground v.1.15,2013-03-31 00:31:00,
2013-03-30 18:40:00,39.8,22.7,30.02,North,350,14.0,14.0,50,0.00,,,0.04,25,Wunderground v.1.15,2013-03-31 00:40:00,
2013-03-30 19:00:00,37.9,24.0,30.04,NE,42,6.0,7.0,57,0.00,,,0.04,18,Wunderground v.1.15,2013-03-31 01:00:00,
2013-03-30 19:10:00,37.3,23.9,30.05,NE,51,7.0,7.0,58,0.00,,,0.04,12,Wunderground v.1.15,2013-03-31 01:10:00,
2013-03-30 19:30:00,36.2,23.6,30.07,NNE,13,0.0,0.0,60,0.00,,,0.04,0,Wunderground v.1.15,2013-03-31 01:30:00,
2013-03-30 19:40:00,35.0,23.3,30.07,North,11,1.0,1.0,62,0.00,,,0.04,0,Wunderground v.1.15,2013-03-31 01:40:00,
2013-03-30 20:00:00,31.9,22.9,30.09,North,11,0.0,2.0,69,0.00,,,0.04,0,Wunderground v.1.15,2013-03-31 02:00:00,
2013-03-30 20:20:00,30.2,22.6,30.10,North,11,0.0,0.0,73,0.00,,,0.04,0,Wunderground v.1.15,2013-03-31 02:20:00,
2013-03-30 20:41:00,29.7,22.1,30.11,NNW,334,2.0,2.0,73,0.00,,,0.04,0,Wunderground v.1.15,2013-03-31 02:41:00,
2013-03-30 20:50:00,29.5,21.9,30.12,NNW,334,1.0,1.0,73,0.00,,,0.04,0,Wunderground v.1.15,2013-03-31 02:50:00,
2013-03-30 21:10:00,29.3,20.4,30.12,NW,304,2.0,3.0,69,0.00,,,0.04,0,Wunderground v.1.15,2013-03-31 03:10:00,
2013-03-30 21:30:00,28.8,20.6,30.13,NNW,346,0.0,0.0,71,0.00,,,0.04,0,Wunderground v.1.15,2013-03-31 03:30:00,
2013-03-30 21:50:00,27.4,19.6,30.14,NNW,346,0.0,2.0,72,0.00,,,0.04,0,Wunderground v.1.15,2013-03-31 03:50:00,
2013-03-30 22:00:00,27.1,18.3,30.14,NNW,346,1.0,1.0,69,0.00,,,0.04,0,Wunderground v.1.15,2013-03-31 04:00:00,
2013-03-30 22:20:00,26.7,18.6,30.14,NNW,340,2.0,3.0,71,0.00,,,0.04,0,Wunderground v.1.15,2013-03-31 04:20:00,
2013-03-30 22:30:00,27.5,17.6,30.14,NW,315,3.0,3.0,66,0.00,,,0.04,0,Wunderground v.1.15,2013-03-31 04:30:00,
2013-03-30 22:41:00,27.1,16.5,30.14,NW,315,0.0,0.0,64,0.00,,,0.04,0,Wunderground v.1.15,2013-03-31 04:41:00,
2013-03-30 22:50:00,26.7,16.5,30.14,NW,315,0.0,0.0,65,0.00,,,0.04,0,Wunderground v.1.15,2013-03-31 04:50:00,
2013-03-30 23:01:00,26.3,16.5,30.14,NW,315,0.0,0.0,66,0.00,,,0.04,0,Wunderground v.1.15,2013-03-31 05:01:00,
2013-03-30 23:10:00,25.9,16.1,30.14,NW,319,1.0,1.0,66,0.00,,,0.04,0,Wunderground v.1.15,2013-03-31 05:10:00,
2013-03-30 23:30:00,25.2,16.5,30.14,NW,319,1.0,2.0,69,0.00,,,0.04,0,Wunderground v.1.15,2013-03-31 05:30:00,
2013-03-30 23:40:00,24.9,16.2,30.14,NW,319,2.0,2.0,69,0.00,,,0.04,0,Wunderground v.1.15,2013-03-31 05:40:00,
2013-03-30 23:50:00,24.7,15.6,30.14,NW,319,0.0,0.0,68,0.00,,,0.04,0,Wunderground v.1.15,2013-03-31 05:50:00,